Time;durP1;ratioP1;P1;durP2;ratioP2;P2;SDS_P1;SDS_P2;PMS_P1;PMS_P2;Temp;Humidity;BMP_temperature;BMP_pressure;BME280_temperature;BME280_humidity;BME280_pressure;Samples;Min_cycle;Max_cycle;Signal;HPM_P1;HPM_P2
2023/12/17 00:00:56;;;;;;;1.13;1.13;;;;;;;4.03;100.00;102510.44;4944124;29;20437;-90
2023/12/17 00:03:21;;;;;;;0.93;0.93;;;;;;;4.08;100.00;102517.63;4927889;29;20110;-89
2023/12/17 00:05:48;;;;;;;0.95;0.95;;;;;;;4.07;100.00;102504.41;4924762;29;20031;-89
2023/12/17 00:08:14;;;;;;;1.00;1.00;;;;;;;3.92;100.00;102480.25;4956739;29;20157;-89
2023/12/17 00:10:40;;;;;;;0.90;0.90;;;;;;;3.68;100.00;102458.34;4936964;29;20027;-90
2023/12/17 00:13:05;;;;;;;1.00;1.00;;;;;;;3.58;100.00;102443.06;4942767;29;20086;-90
2023/12/17 00:15:30;;;;;;;1.00;1.00;;;;;;;3.73;100.00;102488.34;4924927;29;20046;-90
2023/12/17 00:17:56;;;;;;;1.00;1.00;;;;;;;3.53;100.00;102460.44;4925113;29;20529;-89
2023/12/17 00:20:21;;;;;;;1.05;1.05;;;;;;;3.75;100.00;102507.72;4924162;29;20024;-89
2023/12/17 00:22:47;;;;;;;1.00;1.00;;;;;;;3.60;100.00;102492.31;4941086;29;20024;-90
2023/12/17 00:25:12;;;;;;;1.30;1.30;;;;;;;3.59;100.00;102469.44;4920367;29;20024;-89
2023/12/17 00:27:38;;;;;;;0.95;0.95;;;;;;;3.72;100.00;102497.09;4921424;29;20028;-89
2023/12/17 00:30:04;;;;;;;1.00;1.00;;;;;;;3.50;100.00;102481.38;4936556;29;20062;-89
2023/12/17 00:32:29;;;;;;;1.00;1.00;;;;;;;3.15;100.00;102434.53;4923068;29;20167;-89
2023/12/17 00:34:54;;;;;;;1.00;1.00;;;;;;;3.53;100.00;102511.34;4923236;29;20115;-89
2023/12/17 00:37:20;;;;;;;0.90;0.90;;;;;;;3.44;100.00;102510.13;4923035;29;20507;-89
2023/12/17 00:39:45;;;;;;;1.00;1.00;;;;;;;3.42;100.00;102509.16;4955407;29;20032;-89
2023/12/17 00:42:11;;;;;;;1.10;1.10;;;;;;;2.84;100.00;102413.22;4959009;28;20031;-89
2023/12/17 00:44:36;;;;;;;0.95;0.95;;;;;;;3.34;100.00;102494.84;4942699;29;20038;-90
2023/12/17 00:47:02;;;;;;;0.93;0.93;;;;;;;2.81;100.00;102413.13;4943715;29;20484;-89
2023/12/17 00:49:28;;;;;;;1.05;1.05;;;;;;;3.09;100.00;102473.75;4924006;29;20028;-89
2023/12/17 00:51:53;;;;;;;0.95;0.95;;;;;;;3.34;100.00;102515.88;4922836;29;20024;-89
2023/12/17 00:54:19;;;;;;;1.00;1.00;;;;;;;3.23;100.00;102498.84;4904350;29;20034;-89
2023/12/17 00:56:44;;;;;;;1.10;1.10;;;;;;;3.33;100.00;102519.34;4912328;29;20126;-89
2023/12/17 00:59:09;;;;;;;1.17;1.17;;;;;;;3.24;100.00;102503.25;4940664;29;20038;-89
2023/12/17 01:01:35;;;;;;;1.00;1.00;;;;;;;3.23;100.00;102507.59;4923084;29;20134;-89
2023/12/17 01:04:00;;;;;;;1.00;1.00;;;;;;;3.36;100.00;102522.09;4923075;29;20023;-89
2023/12/17 01:06:26;;;;;;;1.20;1.20;;;;;;;3.30;100.00;102506.97;4938918;29;20043;-89
2023/12/17 01:08:51;;;;;;;1.17;1.17;;;;;;;3.26;100.00;102488.41;4922065;29;20027;-89
2023/12/17 01:11:17;;;;;;;1.00;1.00;;;;;;;3.34;100.00;102513.25;4931059;29;20033;-89
2023/12/17 01:13:42;;;;;;;0.98;0.98;;;;;;;3.38;100.00;102521.31;4941419;29;20050;-89
2023/12/17 01:16:08;;;;;;;1.08;1.08;;;;;;;3.25;100.00;102502.38;4941296;29;20867;-89
2023/12/17 01:18:34;;;;;;;1.10;1.10;;;;;;;3.43;100.00;102529.34;4921435;29;20415;-89
2023/12/17 01:21:00;;;;;;;0.98;0.98;;;;;;;3.22;100.00;102504.91;4921440;29;20078;-89
2023/12/17 01:23:25;;;;;;;1.15;1.15;;;;;;;3.17;100.00;102503.84;4921485;29;20030;-90
2023/12/17 01:25:51;;;;;;;1.10;1.10;;;;;;;3.20;100.00;102514.47;4921489;29;20043;-89
2023/12/17 01:28:17;;;;;;;1.10;1.10;;;;;;;3.22;100.00;102512.78;4921336;29;20059;-89
2023/12/17 01:30:42;;;;;;;1.20;1.20;;;;;;;3.11;100.00;102503.63;4921737;29;20023;-90
2023/12/17 01:33:08;;;;;;;1.00;1.00;;;;;;;3.17;100.00;102507.38;4922578;29;20509;-90
2023/12/17 01:35:33;;;;;;;0.80;0.80;;;;;;;3.06;100.00;102498.22;4939465;29;20387;-90
2023/12/17 01:37:59;;;;;;;1.10;1.10;;;;;;;3.10;100.00;102513.25;4921167;29;20466;-89
2023/12/17 01:40:24;;;;;;;1.10;1.10;;;;;;;3.13;100.00;102523.88;4929876;29;20114;-89
2023/12/17 01:42:53;;;;;;;1.02;1.02;;;;;;;3.11;100.00;102530.81;4933500;29;20030;-89
2023/12/17 01:45:19;;;;;;;1.10;1.10;;;;;;;2.98;100.00;102522.41;4938060;29;20031;-89
2023/12/17 01:47:44;;;;;;;0.90;0.90;;;;;;;2.81;100.00;102502.47;4920618;29;20090;-90
2023/12/17 01:50:10;;;;;;;1.10;1.10;;;;;;;2.84;100.00;102510.47;4952247;29;20024;-90
2023/12/17 01:52:36;;;;;;;1.30;1.30;;;;;;;2.73;100.00;102507.44;4937132;29;20047;-89
2023/12/17 01:55:03;;;;;;;1.10;1.10;;;;;;;2.75;100.00;102513.66;4920093;29;20032;-90
2023/12/17 01:57:29;;;;;;;0.90;0.90;;;;;;;2.41;100.00;102465.88;4920694;29;20054;-89
2023/12/17 01:59:56;;;;;;;1.00;1.00;;;;;;;2.70;100.00;102517.84;4929195;29;20038;-90
2023/12/17 02:02:21;;;;;;;1.02;1.02;;;;;;;2.92;100.00;102551.06;4931025;29;20534;-89
2023/12/17 02:04:47;;;;;;;1.20;1.20;;;;;;;2.78;100.00;102512.88;4937387;29;20040;-89
2023/12/17 02:07:12;;;;;;;1.00;1.00;;;;;;;2.78;100.00;102519.03;4919186;29;20062;-90
2023/12/17 02:09:38;;;;;;;1.20;1.20;;;;;;;2.65;100.00;102496.63;4918898;29;20032;-90
2023/12/17 02:12:03;;;;;;;0.90;0.90;;;;;;;2.84;100.00;102526.22;4918490;29;20028;-89
2023/12/17 02:14:29;;;;;;;1.10;1.10;;;;;;;2.88;100.00;102515.00;4940580;29;20163;-90
2023/12/17 02:16:54;;;;;;;1.20;1.20;;;;;;;2.98;100.00;102506.63;4939869;29;20031;-90
2023/12/17 02:19:19;;;;;;;1.00;1.00;;;;;;;2.99;100.00;102508.41;4930251;29;20028;-90
2023/12/17 02:21:45;;;;;;;1.10;1.10;;;;;;;3.02;100.00;102524.31;4920459;29;20024;-90
2023/12/17 02:24:12;;;;;;;1.10;1.10;;;;;;;2.75;100.00;102470.72;4920164;29;20024;-90
2023/12/17 02:26:41;;;;;;;1.20;1.20;;;;;;;3.14;100.00;102520.41;4951790;29;20031;-90
2023/12/17 02:29:06;;;;;;;1.00;1.00;;;;;;;3.15;100.00;102543.22;4906190;29;20051;-89
2023/12/17 02:31:32;;;;;;;1.00;1.00;;;;;;;3.19;100.00;102566.19;4917519;29;20028;-90
2023/12/17 02:33:57;;;;;;;1.00;1.00;;;;;;;3.05;100.00;102556.88;4925420;29;20034;-90
2023/12/17 02:36:23;;;;;;;1.00;1.00;;;;;;;3.08;100.00;102558.72;4920408;29;20133;-90
2023/12/17 02:38:48;;;;;;;1.13;1.13;;;;;;;2.94;100.00;102541.50;4920184;29;20023;-91
2023/12/17 02:41:14;;;;;;;0.98;0.98;;;;;;;2.91;100.00;102547.56;4936888;29;20127;-90
2023/12/17 02:43:39;;;;;;;1.00;1.00;;;;;;;2.92;100.00;102551.97;4921648;29;20454;-90
2023/12/17 02:46:05;;;;;;;1.13;1.13;;;;;;;2.88;100.00;102536.03;4937456;29;20118;-90
2023/12/17 02:48:30;;;;;;;1.00;1.00;;;;;;;2.93;100.00;102556.41;4920376;29;20027;-90
2023/12/17 02:50:55;;;;;;;0.80;0.80;;;;;;;2.97;100.00;102547.78;4919676;29;20118;-90
2023/12/17 02:53:21;;;;;;;1.10;1.10;;;;;;;3.00;100.00;102552.28;4919985;29;20034;-90
2023/12/17 02:55:46;;;;;;;1.10;1.10;;;;;;;3.04;100.00;102554.19;4920269;29;20497;-90
2023/12/17 02:58:12;;;;;;;1.30;1.30;;;;;;;2.97;100.00;102520.59;4919770;29;20035;-90
2023/12/17 03:00:37;;;;;;;1.02;1.02;;;;;;;2.61;100.00;102457.03;4937169;29;20095;-89
2023/12/17 03:03:02;;;;;;;1.05;1.05;;;;;;;2.96;100.00;102529.34;4919936;29;20061;-90
2023/12/17 03:05:28;;;;;;;1.20;1.20;;;;;;;2.99;100.00;102538.25;4919988;29;20472;-90
2023/12/17 03:07:53;;;;;;;1.20;1.20;;;;;;;3.00;100.00;102520.75;4916639;29;20432;-90
2023/12/17 03:10:19;;;;;;;1.10;1.10;;;;;;;3.12;100.00;102536.97;4918226;29;20028;-90
2023/12/17 03:12:44;;;;;;;1.20;1.20;;;;;;;2.88;100.00;102501.88;4916855;29;20028;-90
2023/12/17 03:15:10;;;;;;;1.20;1.20;;;;;;;2.99;100.00;102513.69;4917425;29;20028;-90
2023/12/17 03:17:35;;;;;;;1.02;1.02;;;;;;;3.02;100.00;102509.44;4947436;29;20388;-90
2023/12/17 03:20:04;;;;;;;1.17;1.17;;;;;;;3.08;100.00;102507.03;4957607;29;20031;-90
2023/12/17 03:22:30;;;;;;;1.20;1.20;;;;;;;3.06;100.00;102494.69;4939094;29;20058;-90
2023/12/17 03:24:56;;;;;;;1.20;1.20;;;;;;;3.00;100.00;102462.91;4939720;29;20524;-90
2023/12/17 03:27:21;;;;;;;1.17;1.17;;;;;;;3.09;100.00;102473.75;4923317;29;20027;-90
2023/12/17 03:29:47;;;;;;;1.10;1.10;;;;;;;2.95;100.00;102456.59;4920773;29;20055;-90
2023/12/17 03:32:14;;;;;;;1.27;1.27;;;;;;;3.07;100.00;102463.19;4917139;29;20023;-90
2023/12/17 03:34:40;;;;;;;1.08;1.08;;;;;;;3.13;100.00;102475.66;4937315;29;20023;-89
2023/12/17 03:37:06;;;;;;;1.02;1.02;;;;;;;2.82;100.00;102404.41;4937021;29;20027;-90
2023/12/17 03:39:31;;;;;;;1.20;1.20;;;;;;;3.18;100.00;102463.59;4936924;29;20028;-90
2023/12/17 03:41:57;;;;;;;1.20;1.20;;;;;;;3.18;100.00;102458.31;4951853;29;20073;-91
2023/12/17 03:44:22;;;;;;;1.10;1.10;;;;;;;3.15;100.00;102453.84;4919753;29;20462;-90
2023/12/17 03:46:48;;;;;;;1.10;1.10;;;;;;;2.87;100.00;102410.75;4938649;29;20025;-90
2023/12/17 03:49:13;;;;;;;1.10;1.10;;;;;;;3.21;100.00;102453.16;4937514;29;20031;-90
2023/12/17 03:51:38;;;;;;;1.00;1.00;;;;;;;3.23;100.00;102447.09;4919857;29;20034;-90
2023/12/17 03:54:04;;;;;;;1.20;1.20;;;;;;;3.25;100.00;102444.53;4936706;29;20094;-90
2023/12/17 03:56:29;;;;;;;1.17;1.17;;;;;;;3.21;100.00;102447.91;4919905;29;20027;-90
2023/12/17 03:58:55;;;;;;;1.00;1.00;;;;;;;3.15;100.00;102443.31;4920644;29;20046;-90
2023/12/17 04:01:20;;;;;;;0.88;0.88;;;;;;;3.20;100.00;102443.47;4921251;29;20736;-90
2023/12/17 04:03:45;;;;;;;1.08;1.08;;;;;;;2.97;100.00;102402.31;4920316;29;20127;-91
2023/12/17 04:06:11;;;;;;;1.10;1.10;;;;;;;3.32;100.00;102473.75;4920618;29;20098;-90
2023/12/17 04:08:36;;;;;;;1.10;1.10;;;;;;;3.12;100.00;102431.78;4920914;29;20055;-90
2023/12/17 04:11:02;;;;;;;1.05;1.05;;;;;;;3.18;100.00;102442.53;4920457;29;20051;-90
2023/12/17 04:13:27;;;;;;;1.20;1.20;;;;;;;3.22;100.00;102439.16;4920582;29;20040;-89
2023/12/17 04:15:53;;;;;;;1.10;1.10;;;;;;;3.16;100.00;102439.88;4937815;29;20027;-89
2023/12/17 04:18:18;;;;;;;1.17;1.17;;;;;;;3.27;100.00;102463.91;4923265;29;20169;-90
2023/12/17 04:20:44;;;;;;;1.02;1.02;;;;;;;3.07;100.00;102446.50;4923479;29;20027;-90
2023/12/17 04:23:09;;;;;;;1.10;1.10;;;;;;;3.23;100.00;102480.44;4942398;29;20031;-90
2023/12/17 04:25:34;;;;;;;1.10;1.10;;;;;;;3.14;100.00;102467.84;4925371;29;20030;-91
2023/12/17 04:28:00;;;;;;;1.13;1.13;;;;;;;3.06;100.00;102452.59;4926400;29;20020;-90
2023/12/17 04:30:25;;;;;;;1.17;1.17;;;;;;;3.04;100.00;102451.66;4926103;29;20031;-90
2023/12/17 04:32:51;;;;;;;1.20;1.20;;;;;;;3.11;100.00;102472.06;4928138;29;20047;-90
2023/12/17 04:35:16;;;;;;;1.13;1.13;;;;;;;3.06;100.00;102449.97;4927247;29;20028;-89
2023/12/17 04:37:42;;;;;;;1.20;1.20;;;;;;;2.99;100.00;102453.22;4928208;29;20032;-90
2023/12/17 04:40:09;;;;;;;1.13;1.13;;;;;;;3.11;100.00;102466.81;4928990;29;20039;-90
2023/12/17 04:42:35;;;;;;;1.00;1.00;;;;;;;3.16;100.00;102460.00;4933441;29;20409;-90
2023/12/17 04:45:01;;;;;;;1.10;1.10;;;;;;;3.12;100.00;102452.81;4963789;29;20028;-89
2023/12/17 04:47:28;;;;;;;1.10;1.10;;;;;;;3.27;100.00;102472.69;4953274;29;20404;-90
2023/12/17 04:49:53;;;;;;;1.15;1.15;;;;;;;3.15;100.00;102460.81;4932388;29;20066;-90
2023/12/17 04:52:18;;;;;;;0.90;0.90;;;;;;;3.08;100.00;102445.69;4933481;29;20134;-90
2023/12/17 04:54:44;;;;;;;1.00;1.00;;;;;;;3.01;100.00;102433.16;4933614;29;20083;-90
2023/12/17 04:57:09;;;;;;;1.00;1.00;;;;;;;3.11;100.00;102461.56;4934457;29;20025;-90
2023/12/17 04:59:35;;;;;;;1.20;1.20;;;;;;;2.98;100.00;102438.31;4966469;29;20038;-90
2023/12/17 05:02:00;;;;;;;1.17;1.17;;;;;;;3.13;100.00;102467.78;4933471;29;20036;-90
2023/12/17 05:04:25;;;;;;;1.10;1.10;;;;;;;3.12;100.00;102458.06;4934276;29;20027;-90
2023/12/17 05:06:51;;;;;;;1.00;1.00;;;;;;;3.11;100.00;102461.56;4934022;29;20071;-90
2023/12/17 05:09:16;;;;;;;1.00;1.00;;;;;;;2.98;100.00;102430.41;4944691;29;20041;-90
2023/12/17 05:11:42;;;;;;;1.10;1.10;;;;;;;2.89;100.00;102404.69;4938061;29;20051;-90
2023/12/17 05:14:07;;;;;;;1.20;1.20;;;;;;;3.19;100.00;102478.50;4933283;29;20031;-90
2023/12/17 05:16:33;;;;;;;1.05;1.05;;;;;;;2.59;100.00;102365.03;4933092;29;20063;-90
2023/12/17 05:18:58;;;;;;;1.23;1.23;;;;;;;3.09;100.00;102453.63;4931407;29;20043;-90
2023/12/17 05:21:24;;;;;;;1.02;1.02;;;;;;;3.10;100.00;102450.13;4923179;29;20122;-90
2023/12/17 05:23:49;;;;;;;1.00;1.00;;;;;;;2.80;100.00;102406.97;4932345;29;20012;-90
2023/12/17 05:26:15;;;;;;;1.10;1.10;;;;;;;3.11;100.00;102451.03;4931514;29;20028;-90
2023/12/17 05:28:41;;;;;;;1.20;1.20;;;;;;;2.75;100.00;102374.41;4931513;29;20043;-90
2023/12/17 05:31:07;;;;;;;1.05;1.05;;;;;;;2.74;100.00;102385.72;4964846;29;20063;-90
2023/12/17 05:33:33;;;;;;;0.95;0.95;;;;;;;3.21;100.00;102453.16;4949714;29;20059;-90
2023/12/17 05:35:58;;;;;;;1.10;1.10;;;;;;;3.16;100.00;102460.91;4949883;29;20027;-90
2023/12/17 05:38:27;;;;;;;1.20;1.20;;;;;;;2.91;100.00;102404.75;4935097;29;20026;-90
2023/12/17 05:40:54;;;;;;;1.10;1.10;;;;;;;2.95;100.00;102425.03;4949140;29;20479;-90
2023/12/17 05:43:19;;;;;;;1.30;1.30;;;;;;;3.11;100.00;102458.94;4948577;29;20036;-90
2023/12/17 05:45:45;;;;;;;1.00;1.00;;;;;;;3.10;100.00;102459.78;4949296;29;20039;-89
2023/12/17 05:48:11;;;;;;;1.20;1.20;;;;;;;2.89;100.00;102427.44;4932088;29;20024;-90
2023/12/17 05:50:36;;;;;;;1.20;1.20;;;;;;;3.07;100.00;102457.91;4947872;29;20031;-90
2023/12/17 05:53:02;;;;;;;1.20;1.20;;;;;;;2.99;100.00;102445.34;4932161;29;20099;-90
2023/12/17 05:55:27;;;;;;;1.10;1.10;;;;;;;2.56;100.00;102375.44;4930525;29;20028;-90
2023/12/17 05:57:52;;;;;;;1.20;1.20;;;;;;;2.89;100.00;102433.59;4932165;29;20054;-90
2023/12/17 06:00:18;;;;;;;1.20;1.20;;;;;;;2.92;100.00;102431.06;4938697;29;20549;-90
2023/12/17 06:02:43;;;;;;;1.00;1.00;;;;;;;2.88;100.00;102428.28;4949827;29;20079;-90
2023/12/17 06:05:09;;;;;;;1.20;1.20;;;;;;;2.93;100.00;102439.88;4932860;29;20028;-90
2023/12/17 06:07:34;;;;;;;1.13;1.13;;;;;;;2.86;100.00;102422.97;4945336;29;20016;-90
2023/12/17 06:10:00;;;;;;;1.20;1.20;;;;;;;2.96;100.00;102445.22;4930690;29;20027;-90
2023/12/17 06:12:25;;;;;;;1.30;1.30;;;;;;;2.79;100.00;102418.31;4930580;29;20026;-90
2023/12/17 06:14:51;;;;;;;1.08;1.08;;;;;;;2.89;100.00;102443.19;4929000;29;20126;-90
2023/12/17 06:17:16;;;;;;;1.05;1.05;;;;;;;2.75;100.00;102419.06;4921220;29;20034;-90
2023/12/17 06:19:44;;;;;;;1.17;1.17;;;;;;;2.93;100.00;102455.63;4930153;29;20031;-90
2023/12/17 06:22:11;;;;;;;1.30;1.30;;;;;;;2.82;100.00;102430.69;4930456;29;20034;-90
2023/12/17 06:24:37;;;;;;;1.15;1.15;;;;;;;2.69;100.00;102414.47;4949835;29;20028;-90
2023/12/17 06:27:03;;;;;;;1.25;1.25;;;;;;;2.85;100.00;102436.06;4920336;29;20028;-90
2023/12/17 06:29:28;;;;;;;1.02;1.02;;;;;;;2.89;100.00;102448.47;4930543;29;20059;-90
2023/12/17 06:31:54;;;;;;;1.15;1.15;;;;;;;2.85;100.00;102436.06;4950029;29;20020;-90
2023/12/17 06:34:19;;;;;;;1.10;1.10;;;;;;;2.86;100.00;102440.47;4927842;29;20136;-90
2023/12/17 06:36:45;;;;;;;1.30;1.30;;;;;;;2.73;100.00;102426.88;4929832;29;20763;-91
2023/12/17 06:39:10;;;;;;;1.23;1.23;;;;;;;2.90;100.00;102466.03;4928623;29;20170;-90
2023/12/17 06:41:42;;;;;;;1.20;1.20;;;;;;;2.73;100.00;102441.75;4945554;29;20032;-90
2023/12/17 06:44:08;;;;;;;1.30;1.30;;;;;;;2.92;100.00;102473.13;4927859;29;20047;-91
2023/12/17 06:46:33;;;;;;;1.10;1.10;;;;;;;2.84;100.00;102461.44;4917647;29;20025;-90
2023/12/17 06:48:59;;;;;;;1.00;1.00;;;;;;;2.98;100.00;102490.88;4941803;29;20470;-90
2023/12/17 06:51:24;;;;;;;1.20;1.20;;;;;;;2.84;100.00;102469.31;4928815;29;20035;-91
2023/12/17 06:53:49;;;;;;;1.10;1.10;;;;;;;3.00;100.00;102495.31;4945389;29;20046;-91
2023/12/17 06:56:15;;;;;;;1.13;1.13;;;;;;;2.75;100.00;102460.19;4928870;29;20035;-90
2023/12/17 06:58:41;;;;;;;1.20;1.20;;;;;;;2.80;100.00;102475.28;4944217;29;20028;-91
2023/12/17 07:01:06;;;;;;;1.20;1.20;;;;;;;2.81;100.00;102487.59;4959176;29;20027;-90
2023/12/17 07:03:32;;;;;;;1.13;1.13;;;;;;;2.72;100.00;102480.25;4933315;29;20109;-91
2023/12/17 07:05:58;;;;;;;0.90;0.90;;;;;;;2.41;100.00;102431.75;4946700;29;20126;-91
2023/12/17 07:08:25;;;;;;;1.10;1.10;;;;;;;2.81;100.00;102481.44;4935079;29;20027;-90
2023/12/17 07:10:50;;;;;;;1.25;1.25;;;;;;;2.87;100.00;102486.97;4931807;29;20051;-90
2023/12/17 07:13:16;;;;;;;1.02;1.02;;;;;;;2.82;100.00;102472.75;4930841;29;20026;-91
2023/12/17 07:15:43;;;;;;;1.20;1.20;;;;;;;2.72;100.00;102480.25;4929635;29;20091;-90
2023/12/17 07:18:09;;;;;;;1.25;1.25;;;;;;;2.65;100.00;102456.34;4943558;29;20126;-91
2023/12/17 07:20:34;;;;;;;1.10;1.10;;;;;;;2.59;100.00;102462.25;4932594;29;20118;-91
2023/12/17 07:22:59;;;;;;;1.00;1.00;;;;;;;2.18;100.00;102386.22;4920324;29;20555;-91
2023/12/17 07:25:26;;;;;;;1.30;1.30;;;;;;;2.64;100.00;102483.44;4931781;29;20106;-91
2023/12/17 07:27:52;;;;;;;1.20;1.20;;;;;;;2.64;100.00;102489.59;4922722;29;20031;-91
2023/12/17 07:30:18;;;;;;;1.30;1.30;;;;;;;2.50;100.00;102475.00;4925350;29;20511;-91
2023/12/17 07:32:43;;;;;;;1.20;1.20;;;;;;;2.45;100.00;102471.34;4942923;29;20039;-91
2023/12/17 07:35:09;;;;;;;1.23;1.23;;;;;;;2.48;100.00;102471.44;4924622;29;20114;-91
2023/12/17 07:37:35;;;;;;;1.30;1.30;;;;;;;2.56;100.00;102477.88;4941833;29;20048;-91
2023/12/17 07:40:01;;;;;;;1.20;1.20;;;;;;;2.48;100.00;102445.19;4925143;29;20026;-91
2023/12/17 07:42:27;;;;;;;1.27;1.27;;;;;;;2.66;100.00;102484.38;4923885;29;20024;-91
2023/12/17 07:44:52;;;;;;;1.30;1.30;;;;;;;2.58;100.00;102472.69;4961164;28;20019;-91
2023/12/17 07:47:18;;;;;;;1.00;1.00;;;;;;;2.66;100.00;102466.91;4906911;29;20024;-90
2023/12/17 07:49:43;;;;;;;1.10;1.10;;;;;;;2.64;100.00;102467.66;4956835;29;20118;-91
2023/12/17 07:52:09;;;;;;;1.20;1.20;;;;;;;2.48;100.00;102439.94;4926082;29;20509;-91
2023/12/17 07:54:35;;;;;;;1.20;1.20;;;;;;;2.47;100.00;102430.25;4928928;29;20064;-91
2023/12/17 07:57:00;;;;;;;1.23;1.23;;;;;;;2.64;100.00;102457.16;4945045;29;20042;-91
2023/12/17 07:59:25;;;;;;;1.30;1.30;;;;;;;2.72;100.00;102466.22;4929188;29;20032;-91
2023/12/17 08:01:51;;;;;;;1.20;1.20;;;;;;;2.75;100.00;102460.19;4953333;29;20055;-90
2023/12/17 08:04:17;;;;;;;1.20;1.20;;;;;;;2.83;100.00;102456.13;4926871;29;20114;-91
2023/12/17 08:06:43;;;;;;;1.02;1.02;;;;;;;2.89;100.00;102461.59;4944097;29;20047;-91
2023/12/17 08:09:11;;;;;;;1.20;1.20;;;;;;;3.01;100.00;102481.38;4933400;29;20027;-91
2023/12/17 08:11:36;;;;;;;1.20;1.20;;;;;;;2.89;100.00;102474.75;4947565;29;20055;-91
2023/12/17 08:14:03;;;;;;;1.10;1.10;;;;;;;2.95;100.00;102481.13;4939119;29;20019;-91
2023/12/17 08:16:28;;;;;;;1.00;1.00;;;;;;;2.80;100.00;102463.91;4930802;29;20024;-91
2023/12/17 08:18:54;;;;;;;1.20;1.20;;;;;;;3.00;100.00;102495.31;4931063;29;20464;-91
2023/12/17 08:21:19;;;;;;;1.10;1.10;;;;;;;2.93;100.00;102490.72;4929049;29;20039;-91
2023/12/17 08:23:45;;;;;;;1.20;1.20;;;;;;;2.89;100.00;102485.25;4930224;29;20038;-90
2023/12/17 08:26:13;;;;;;;1.17;1.17;;;;;;;2.91;100.00;102473.06;4946942;29;20058;-91
2023/12/17 08:28:38;;;;;;;1.10;1.10;;;;;;;3.01;100.00;102477.84;4942856;29;20051;-90
2023/12/17 08:31:09;;;;;;;1.10;1.10;;;;;;;2.99;100.00;102471.63;4930290;29;20030;-91
2023/12/17 08:33:36;;;;;;;1.20;1.20;;;;;;;3.00;100.00;102468.16;4949423;29;20023;-91
2023/12/17 08:36:01;;;;;;;1.20;1.20;;;;;;;3.12;100.00;102484.38;4930744;29;20122;-91
2023/12/17 08:38:27;;;;;;;1.20;1.20;;;;;;;2.99;100.00;102447.97;4947879;29;20062;-90
2023/12/17 08:40:52;;;;;;;1.20;1.20;;;;;;;3.02;100.00;102469.09;4910729;29;20068;-91
2023/12/17 08:43:18;;;;;;;1.20;1.20;;;;;;;3.03;100.00;102489.31;4941866;29;20032;-91
2023/12/17 08:45:43;;;;;;;1.20;1.20;;;;;;;2.93;100.00;102464.41;4943576;29;20403;-90
2023/12/17 08:48:09;;;;;;;1.20;1.20;;;;;;;3.05;100.00;102477.13;4928257;29;20113;-90
2023/12/17 08:50:34;;;;;;;1.00;1.00;;;;;;;2.97;100.00;102473.28;4929022;29;20042;-90
2023/12/17 08:53:00;;;;;;;1.00;1.00;;;;;;;2.95;100.00;102475.00;4961961;29;20031;-91
2023/12/17 08:55:25;;;;;;;1.30;1.30;;;;;;;2.95;100.00;102475.00;4927068;29;20640;-90
2023/12/17 08:57:51;;;;;;;1.25;1.25;;;;;;;2.86;100.00;102464.13;4927393;29;20031;-91
2023/12/17 09:00:17;;;;;;;1.20;1.20;;;;;;;2.98;100.00;102482.97;4927586;29;20026;-92
2023/12/17 09:02:43;;;;;;;1.20;1.20;;;;;;;2.96;100.00;102482.03;4946358;29;20032;-90
2023/12/17 09:05:08;;;;;;;1.20;1.20;;;;;;;2.87;100.00;102455.41;4930111;29;20067;-91
2023/12/17 09:07:34;;;;;;;1.20;1.20;;;;;;;2.98;100.00;102469.84;4952895;28;20040;-90
2023/12/17 09:10:00;;;;;;;1.08;1.08;;;;;;;2.84;100.00;102448.28;4937796;29;20038;-90
2023/12/17 09:12:26;;;;;;;1.13;1.13;;;;;;;2.85;100.00;102431.69;4929950;29;20047;-91
2023/12/17 09:14:52;;;;;;;1.30;1.30;;;;;;;2.99;100.00;102455.84;4934201;29;20035;-90
2023/12/17 09:17:17;;;;;;;1.10;1.10;;;;;;;3.14;100.00;102461.66;4930363;29;20138;-90
2023/12/17 09:19:43;;;;;;;1.10;1.10;;;;;;;3.35;100.00;102454.53;4931840;29;20032;-91
2023/12/17 09:22:08;;;;;;;1.00;1.00;;;;;;;3.50;100.00;102476.13;4931252;29;20102;-91
2023/12/17 09:24:34;;;;;;;1.20;1.20;;;;;;;2.94;100.00;102421.50;4937643;29;20502;-90
2023/12/17 09:27:00;;;;;;;1.15;1.15;;;;;;;3.26;100.00;102467.38;4926293;29;20023;-91
2023/12/17 09:29:26;;;;;;;1.00;1.00;;;;;;;3.21;100.00;102454.06;4949367;29;20503;-91
2023/12/17 09:31:51;;;;;;;1.10;1.10;;;;;;;3.32;100.00;102468.50;4931100;29;20031;-91
2023/12/17 09:34:17;;;;;;;1.00;1.00;;;;;;;3.23;100.00;102441.84;4961857;29;20475;-91
2023/12/17 09:36:44;;;;;;;0.85;0.85;;;;;;;3.39;100.00;102477.50;4932061;29;20023;-91
2023/12/17 09:39:09;;;;;;;1.10;1.10;;;;;;;3.31;100.00;102466.69;4931454;29;20012;-91
2023/12/17 09:41:35;;;;;;;1.20;1.20;;;;;;;3.14;100.00;102427.50;4947003;29;20364;-91
2023/12/17 09:44:05;;;;;;;1.23;1.23;;;;;;;3.46;100.00;102466.34;4926950;29;20111;-91
2023/12/17 09:46:31;;;;;;;1.10;1.10;;;;;;;3.69;100.00;102494.34;4957277;29;20728;-90
2023/12/17 09:48:58;;;;;;;1.00;1.00;;;;;;;3.53;100.00;102463.97;4958714;29;20024;-91
2023/12/17 09:51:26;;;;;;;1.10;1.10;;;;;;;3.63;100.00;102462.56;4941748;29;20707;-90
2023/12/17 09:53:53;;;;;;;1.00;1.00;;;;;;;3.45;100.00;102432.97;4926225;29;20079;-91
2023/12/17 09:56:19;;;;;;;1.20;1.20;;;;;;;3.62;100.00;102468.66;4925403;29;20110;-91
2023/12/17 09:58:45;;;;;;;1.20;1.20;;;;;;;3.65;100.00;102450.34;4925500;29;20066;-91
2023/12/17 10:01:11;;;;;;;1.20;1.20;;;;;;;3.50;100.00;102448.09;4926638;29;20047;-91
2023/12/17 10:03:36;;;;;;;1.20;1.20;;;;;;;3.59;100.00;102461.53;4924640;29;20032;-91
2023/12/17 10:06:03;;;;;;;1.00;1.00;;;;;;;3.45;100.00;102441.78;4924709;29;20034;-91
2023/12/17 10:08:28;;;;;;;1.10;1.10;;;;;;;3.45;100.00;102444.41;4924609;29;20040;-91
2023/12/17 10:10:53;;;;;;;1.13;1.13;;;;;;;3.43;100.00;102435.56;4924752;29;20026;-90
2023/12/17 10:13:21;;;;;;;1.10;1.10;;;;;;;3.66;100.00;102475.81;4947738;29;20038;-90
2023/12/17 10:15:52;;;;;;;1.20;1.20;;;;;;;3.25;100.00;102386.69;4950043;28;20471;-90
2023/12/17 10:18:18;;;;;;;1.30;1.30;;;;;;;3.68;100.00;102448.72;4954977;29;20043;-91
2023/12/17 10:20:45;;;;;;;1.20;1.20;;;;;;;3.67;100.00;102443.41;4939750;29;20059;-91
2023/12/17 10:23:11;;;;;;;1.20;1.20;;;;;;;3.79;100.00;102446.44;4924629;29;20046;-91
2023/12/17 10:25:36;;;;;;;1.00;1.00;;;;;;;3.43;100.00;102347.84;4926451;29;20711;-91
2023/12/17 10:28:02;;;;;;;1.10;1.10;;;;;;;3.99;100.00;102429.56;4939059;29;20042;-91
2023/12/17 10:30:32;;;;;;;1.00;1.00;;;;;;;3.93;100.00;102435.53;4934035;29;20036;-91
2023/12/17 10:33:00;;;;;;;1.10;1.10;;;;;;;3.74;100.00;102392.78;4919062;29;20055;-90
2023/12/17 10:35:26;;;;;;;0.95;0.95;;;;;;;3.83;100.00;102407.13;4941389;29;20043;-91
2023/12/17 10:37:55;;;;;;;0.90;0.90;;;;;;;3.94;100.00;102402.19;4920979;29;20031;-91
2023/12/17 10:40:21;;;;;;;1.08;1.08;;;;;;;4.15;100.00;102416.06;4938209;29;20028;-91
2023/12/17 10:42:49;;;;;;;1.00;1.00;;;;;;;4.19;100.00;102415.28;4939254;29;20023;-91
2023/12/17 10:45:19;;;;;;;1.10;1.10;;;;;;;4.05;100.00;102406.06;4921234;29;20031;-90
2023/12/17 10:47:47;;;;;;;1.00;1.00;;;;;;;4.11;100.00;102403.63;4937827;29;20039;-90
2023/12/17 10:50:14;;;;;;;1.00;1.00;;;;;;;4.25;100.00;102402.28;4920228;29;20099;-90
2023/12/17 10:52:40;;;;;;;1.00;1.00;;;;;;;4.15;100.00;102362.47;4952279;29;20028;-91
2023/12/17 10:55:06;;;;;;;1.02;1.02;;;;;;;4.39;100.00;102390.47;4920803;29;20028;-92
2023/12/17 10:57:34;;;;;;;0.90;0.90;;;;;;;4.28;100.00;102391.88;4920539;29;20027;-91
2023/12/17 11:00:03;;;;;;;0.98;0.98;;;;;;;4.23;100.00;102353.06;4937343;29;20032;-90
2023/12/17 11:02:29;;;;;;;0.90;0.90;;;;;;;4.28;100.00;102359.38;4920716;29;20028;-90
2023/12/17 11:04:57;;;;;;;1.00;1.00;;;;;;;4.44;100.00;102388.84;4920641;29;20071;-90
2023/12/17 11:07:23;;;;;;;1.10;1.10;;;;;;;4.18;100.00;102323.06;4951430;29;20027;-91
2023/12/17 11:09:49;;;;;;;1.10;1.10;;;;;;;4.45;100.00;102377.44;4952314;29;20839;-91
2023/12/17 11:12:18;;;;;;;0.80;0.80;;;;;;;4.69;100.00;102372.91;4917594;29;20491;-91
2023/12/17 11:14:44;;;;;;;0.80;0.80;;;;;;;4.61;100.00;102345.41;4919203;29;20055;-90
2023/12/17 11:17:14;;;;;;;0.90;0.90;;;;;;;4.68;100.00;102355.28;4920826;29;20034;-91